createdAt,value
2018-08-22T00:02:10.865Z,63.10
2018-08-22T00:04:39.653Z,62.60
2018-08-22T00:07:08.370Z,62.50
2018-08-22T00:09:37.071Z,62.70
2018-08-22T00:12:05.796Z,62.70
2018-08-22T00:14:34.492Z,63.10
2018-08-22T00:17:03.240Z,63.20
2018-08-22T00:19:31.992Z,63.30
2018-08-22T00:22:00.688Z,63.30
2018-08-22T00:24:29.808Z,63.40
2018-08-22T00:26:58.510Z,63.60
2018-08-22T00:29:27.235Z,63.50
2018-08-22T00:31:55.933Z,63.70
2018-08-22T00:34:24.693Z,64.10
2018-08-22T00:36:53.425Z,64.30
2018-08-22T00:39:22.160Z,65.10
2018-08-22T00:41:50.834Z,64.80
2018-08-22T00:44:19.562Z,65.70
2018-08-22T00:46:48.225Z,65.90
2018-08-22T00:49:16.991Z,66.10
2018-08-22T00:51:45.779Z,66.40
2018-08-22T00:54:14.502Z,66.60
2018-08-22T00:56:43.253Z,67.30
2018-08-22T00:59:12.001Z,68.90
2018-08-22T01:01:40.748Z,68.50
2018-08-22T01:04:09.505Z,69.20
2018-08-22T01:06:38.214Z,69.30
2018-08-22T01:09:08.244Z,69.30
2018-08-22T01:11:36.984Z,70.60
2018-08-22T01:14:09.713Z,70.20
2018-08-22T01:16:42.421Z,70.20
2018-08-22T01:19:16.000Z,70.40
2018-08-22T01:21:48.097Z,71.80
2018-08-22T01:24:20.918Z,72.00
2018-08-22T01:26:54.826Z,72.10
2018-08-22T01:29:28.304Z,72.70
2018-08-22T01:32:01.645Z,72.80
2018-08-22T01:34:34.845Z,73.50
2018-08-22T01:37:12.306Z,74.10
2018-08-22T01:39:46.268Z,74.60
2018-08-22T01:42:20.647Z,76.00
2018-08-22T01:44:54.613Z,76.90
2018-08-22T01:47:32.281Z,77.10
2018-08-22T01:50:06.803Z,77.10
2018-08-22T01:52:40.911Z,77.70
2018-08-22T01:55:16.146Z,78.20
2018-08-22T01:57:51.706Z,79.10
2018-08-22T02:00:25.931Z,80.20
2018-08-22T02:03:03.228Z,81.60
2018-08-22T02:05:37.503Z,82.00
2018-08-22T02:08:10.737Z,82.20
2018-08-22T02:10:43.559Z,82.80
2018-08-22T02:13:17.500Z,83.60
2018-08-22T02:15:51.539Z,83.70
2018-08-22T02:18:24.759Z,84.40
2018-08-22T02:20:59.720Z,84.60
2018-08-22T02:23:33.524Z,84.60
2018-08-22T02:26:06.348Z,84.80
2018-08-22T02:28:39.381Z,84.60
2018-08-22T02:31:12.034Z,85.00
2018-08-22T02:33:45.882Z,85.40
2018-08-22T02:36:18.513Z,86.10
2018-08-22T02:38:51.237Z,86.70
2018-08-22T02:41:23.948Z,87.40
2018-08-22T02:43:56.202Z,88.10
2018-08-22T02:46:24.901Z,89.40
2018-08-22T02:48:54.484Z,90.10
2018-08-22T02:51:23.352Z,90.30
2018-08-22T02:53:52.239Z,90.40
2018-08-22T02:56:21.311Z,90.50
2018-08-22T02:58:50.171Z,90.50
2018-08-22T03:01:18.982Z,90.50
2018-08-22T03:03:47.685Z,90.50
2018-08-22T03:06:16.425Z,90.60
2018-08-22T03:08:45.094Z,90.50
2018-08-22T03:11:13.925Z,90.50
2018-08-22T03:13:42.779Z,90.60
2018-08-22T03:16:11.503Z,90.70
2018-08-22T03:18:40.202Z,90.60
2018-08-22T03:21:08.964Z,90.50
2018-08-22T03:23:37.773Z,90.70
2018-08-22T03:26:06.538Z,90.80
2018-08-22T03:28:35.277Z,91.10
2018-08-22T03:31:04.017Z,91.10
2018-08-22T03:33:32.801Z,91.40
2018-08-22T03:36:01.506Z,91.40
2018-08-22T03:38:30.278Z,91.60
2018-08-22T03:40:58.989Z,91.70
2018-08-22T03:43:27.721Z,91.70
2018-08-22T03:45:56.370Z,91.80
2018-08-22T03:48:25.080Z,91.70
2018-08-22T03:50:53.858Z,91.90
2018-08-22T03:53:22.535Z,91.90
2018-08-22T03:55:51.339Z,92.00
2018-08-22T03:58:20.042Z,92.30
2018-08-22T04:00:48.797Z,92.40
2018-08-22T04:03:17.543Z,92.30
2018-08-22T04:05:46.313Z,92.50
2018-08-22T04:08:15.037Z,92.50
2018-08-22T04:10:43.769Z,92.80
2018-08-22T04:13:12.585Z,92.90
2018-08-22T04:15:41.352Z,93.00
2018-08-22T04:18:10.094Z,93.20
2018-08-22T04:20:38.872Z,93.40
2018-08-22T04:23:07.658Z,93.80
2018-08-22T04:25:36.409Z,93.90
2018-08-22T04:28:05.221Z,94.00
2018-08-22T04:30:34.024Z,94.20
2018-08-22T04:33:02.760Z,94.50
2018-08-22T04:35:31.472Z,94.30
2018-08-22T04:38:00.215Z,94.30
2018-08-22T04:40:28.952Z,94.40
2018-08-22T04:42:57.680Z,94.80
2018-08-22T04:45:26.549Z,94.60
2018-08-22T04:47:55.294Z,94.70
2018-08-22T04:50:24.061Z,94.60
2018-08-22T04:52:52.950Z,94.80
2018-08-22T04:55:21.695Z,94.70
2018-08-22T04:57:50.483Z,94.80
2018-08-22T05:00:19.200Z,95.00
2018-08-22T05:02:48.056Z,95.00
2018-08-22T05:05:16.744Z,95.20
2018-08-22T05:07:45.428Z,95.10
2018-08-22T05:10:14.184Z,95.30
2018-08-22T05:12:42.956Z,95.20
2018-08-22T05:15:11.617Z,95.40
2018-08-22T05:17:40.298Z,95.10
2018-08-22T05:20:09.001Z,95.10
2018-08-22T05:22:37.848Z,95.50
2018-08-22T05:25:06.794Z,95.80
2018-08-22T05:27:35.633Z,95.60
2018-08-22T05:30:04.526Z,95.70
2018-08-22T05:32:35.422Z,95.60
2018-08-22T05:35:04.297Z,95.50
2018-08-22T05:37:33.139Z,95.20
2018-08-22T05:40:01.942Z,95.30
2018-08-22T05:42:30.704Z,95.60
2018-08-22T05:44:59.394Z,95.30
2018-08-22T05:47:28.130Z,95.20
2018-08-22T05:49:57.891Z,95.20
2018-08-22T05:52:26.569Z,95.10
2018-08-22T05:54:55.354Z,95.20
2018-08-22T05:57:24.094Z,95.40
2018-08-22T05:59:52.889Z,95.10
2018-08-22T06:02:21.778Z,95.10
2018-08-22T06:04:50.598Z,95.10
2018-08-22T06:07:19.374Z,95.20
2018-08-22T06:09:48.204Z,94.70
2018-08-22T06:12:17.092Z,94.60
2018-08-22T06:14:45.975Z,94.40
2018-08-22T06:17:14.676Z,94.40
2018-08-22T06:19:43.488Z,94.50
2018-08-22T06:22:12.177Z,94.70
2018-08-22T06:24:40.907Z,94.90
2018-08-22T06:27:09.677Z,94.80
2018-08-22T06:29:38.607Z,94.80
2018-08-22T06:32:08.412Z,94.20
2018-08-22T06:34:40.783Z,94.30
2018-08-22T06:37:09.533Z,94.20
2018-08-22T06:39:38.225Z,94.20
2018-08-22T06:42:06.974Z,94.00
2018-08-22T06:44:35.763Z,93.80
2018-08-22T06:47:04.580Z,93.20
2018-08-22T06:49:33.336Z,93.20
2018-08-22T06:52:02.194Z,93.30
2018-08-22T06:54:31.111Z,92.70
2018-08-22T06:56:59.858Z,92.50
2018-08-22T06:59:28.698Z,92.70
2018-08-22T07:01:58.594Z,92.20
2018-08-22T07:04:28.073Z,92.00
2018-08-22T07:06:56.787Z,92.00
2018-08-22T07:09:25.607Z,91.30
2018-08-22T07:11:54.391Z,91.10
2018-08-22T07:14:23.268Z,91.30
2018-08-22T07:16:52.113Z,90.50
2018-08-22T07:19:20.945Z,90.00
2018-08-22T07:21:49.864Z,90.00
2018-08-22T07:24:18.691Z,89.90
2018-08-22T07:26:47.617Z,88.30
2018-08-22T07:29:16.401Z,89.70
2018-08-22T07:31:45.100Z,88.70
2018-08-22T07:34:13.967Z,86.60
2018-08-22T07:36:42.726Z,86.00
2018-08-22T07:39:13.098Z,85.60
2018-08-22T07:41:41.829Z,84.90
2018-08-22T07:44:11.503Z,83.60
2018-08-22T07:46:40.355Z,82.60
2018-08-22T07:49:09.189Z,83.00
2018-08-22T07:51:37.913Z,82.10
2018-08-22T07:54:06.823Z,81.50
2018-08-22T07:56:35.577Z,78.70
2018-08-22T07:59:12.718Z,80.10
2018-08-22T08:01:42.148Z,79.20
2018-08-22T08:04:12.253Z,78.40
2018-08-22T08:06:41.415Z,77.50
2018-08-22T08:09:14.019Z,76.20
2018-08-22T08:11:42.837Z,74.20
2018-08-22T08:14:11.831Z,74.60
2018-08-22T08:16:40.592Z,74.50
2018-08-22T08:19:09.824Z,74.60
2018-08-22T08:21:38.785Z,73.50
2018-08-22T08:24:08.056Z,72.60
2018-08-22T08:26:36.801Z,73.00
2018-08-22T08:29:05.473Z,72.00
2018-08-22T08:31:34.308Z,70.00
2018-08-22T08:34:03.068Z,69.30
2018-08-22T08:36:31.785Z,67.10
2018-08-22T08:39:00.533Z,65.90
2018-08-22T08:41:29.472Z,64.00
2018-08-22T08:43:58.425Z,63.10
2018-08-22T08:46:27.892Z,64.40
2018-08-22T08:48:56.799Z,62.90
2018-08-22T08:51:25.578Z,63.70
2018-08-22T08:53:54.410Z,64.10
2018-08-22T08:56:23.251Z,61.50
2018-08-22T08:58:52.060Z,59.50
2018-08-22T09:01:20.837Z,58.70
2018-08-22T09:03:49.578Z,60.00
2018-08-22T09:06:18.473Z,58.30
2018-08-22T09:08:47.266Z,59.00
2018-08-22T09:11:16.095Z,59.20
2018-08-22T09:13:51.738Z,58.20
2018-08-22T09:16:20.515Z,57.90
2018-08-22T09:18:49.335Z,57.40
2018-08-22T09:21:18.145Z,57.10
2018-08-22T09:23:46.958Z,58.30
2018-08-22T09:26:15.765Z,57.30
2018-08-22T09:28:44.640Z,54.80
2018-08-22T09:31:13.572Z,54.20
2018-08-22T09:33:42.721Z,52.80
2018-08-22T09:36:11.482Z,53.20
2018-08-22T09:38:41.169Z,53.40
2018-08-22T09:41:09.921Z,49.60
2018-08-22T09:43:38.640Z,49.50
2018-08-22T09:46:07.377Z,50.30
2018-08-22T09:48:36.109Z,50.80
2018-08-22T09:51:04.892Z,49.40
2018-08-22T09:53:33.978Z,47.80
2018-08-22T09:56:02.839Z,47.90
2018-08-22T09:58:31.705Z,47.10
2018-08-22T10:01:05.721Z,48.10
2018-08-22T10:03:50.491Z,48.20
2018-08-22T10:06:30.714Z,47.40
2018-08-22T10:09:01.829Z,45.40
2018-08-22T10:11:30.567Z,44.50
2018-08-22T10:13:59.299Z,44.90
2018-08-22T10:16:28.937Z,43.90
2018-08-22T10:18:58.047Z,43.40
2018-08-22T10:21:27.258Z,43.40
2018-08-22T10:23:56.019Z,41.60
2018-08-22T10:26:24.914Z,42.00
2018-08-22T10:28:54.013Z,41.50
2018-08-22T10:31:24.693Z,40.90
2018-08-22T10:33:53.804Z,41.40
2018-08-22T10:36:22.605Z,41.70
2018-08-22T10:38:51.352Z,39.60
2018-08-22T10:41:20.147Z,41.50
2018-08-22T10:43:49.072Z,40.00
2018-08-22T10:46:26.625Z,39.60
2018-08-22T10:48:55.380Z,38.80
2018-08-22T10:51:24.197Z,40.90
2018-08-22T10:53:52.935Z,42.00
2018-08-22T10:56:21.744Z,38.90
2018-08-22T10:58:50.481Z,39.10
2018-08-22T11:01:19.316Z,38.60
2018-08-22T11:03:47.959Z,39.10
2018-08-22T11:06:16.674Z,39.60
2018-08-22T11:08:45.504Z,38.60
2018-08-22T11:11:14.400Z,38.40
2018-08-22T11:13:43.213Z,38.60
2018-08-22T11:16:12.155Z,37.60
2018-08-22T11:18:40.959Z,37.10
2018-08-22T11:21:20.828Z,37.50
2018-08-22T11:24:00.672Z,38.10
2018-08-22T11:26:40.450Z,36.80
2018-08-22T11:29:20.510Z,35.80
2018-08-22T11:32:00.426Z,36.20
2018-08-22T11:34:40.376Z,36.60
2018-08-22T11:37:11.117Z,37.40
2018-08-22T11:39:39.877Z,37.90
2018-08-22T11:42:08.640Z,37.00
2018-08-22T11:44:37.393Z,36.30
2018-08-22T11:47:06.209Z,35.60
2018-08-22T11:49:34.986Z,36.20
2018-08-22T11:52:03.731Z,36.80
2018-08-22T11:54:32.712Z,36.70
2018-08-22T11:57:01.999Z,37.10
2018-08-22T11:59:30.908Z,35.90
2018-08-22T12:01:59.762Z,36.10
2018-08-22T12:04:28.466Z,35.80
2018-08-22T12:06:57.314Z,34.90
2018-08-22T12:09:26.138Z,35.60
2018-08-22T12:11:54.957Z,36.80
2018-08-22T12:14:23.698Z,37.60
2018-08-22T12:16:52.562Z,35.50
2018-08-22T12:19:21.277Z,35.80
2018-08-22T12:21:49.999Z,37.00
2018-08-22T12:24:19.014Z,36.70
2018-08-22T12:26:47.842Z,36.20
2018-08-22T12:29:16.638Z,35.70
2018-08-22T12:31:45.636Z,36.50
2018-08-22T12:34:14.393Z,37.50
2018-08-22T12:36:43.176Z,37.30
2018-08-22T12:39:11.970Z,37.50
2018-08-22T12:41:40.814Z,37.50
2018-08-22T12:44:09.537Z,36.60
2018-08-22T12:46:38.290Z,38.20
2018-08-22T12:49:07.115Z,37.10
2018-08-22T12:51:35.982Z,36.90
2018-08-22T12:54:04.763Z,38.00
2018-08-22T12:56:33.630Z,37.40
2018-08-22T12:59:02.457Z,36.20
2018-08-22T13:01:31.278Z,37.20
2018-08-22T13:03:59.975Z,35.80
2018-08-22T13:06:28.930Z,35.50
2018-08-22T13:08:57.633Z,35.40
2018-08-22T13:11:26.440Z,37.10
2018-08-22T13:13:55.215Z,34.50
2018-08-22T13:16:23.982Z,35.90
2018-08-22T13:18:52.798Z,36.10
2018-08-22T13:21:21.588Z,36.70
2018-08-22T13:23:50.390Z,35.60
2018-08-22T13:26:19.307Z,34.30
2018-08-22T13:28:48.078Z,34.90
2018-08-22T13:31:16.847Z,33.50
2018-08-22T13:33:45.584Z,33.80
2018-08-22T13:36:14.402Z,33.90
2018-08-22T13:38:43.119Z,34.90
2018-08-22T13:41:11.910Z,36.50
2018-08-22T13:43:40.608Z,34.80
2018-08-22T13:46:09.326Z,34.90
2018-08-22T13:48:38.664Z,35.10
2018-08-22T13:51:07.644Z,33.50
2018-08-22T13:53:36.508Z,33.80
2018-08-22T13:56:05.320Z,34.50
2018-08-22T13:58:33.956Z,34.00
2018-08-22T14:01:02.688Z,32.90
2018-08-22T14:03:31.465Z,34.10
2018-08-22T14:06:00.311Z,33.50
2018-08-22T14:08:29.005Z,33.60
2018-08-22T14:10:57.719Z,34.30
2018-08-22T14:13:26.488Z,34.20
2018-08-22T14:15:55.370Z,35.60
2018-08-22T14:18:24.205Z,34.60
2018-08-22T14:20:52.937Z,34.00
2018-08-22T14:23:21.840Z,34.20
2018-08-22T14:25:50.838Z,34.00
2018-08-22T14:28:19.743Z,33.70
2018-08-22T14:30:48.484Z,31.10
2018-08-22T14:33:17.249Z,30.30
2018-08-22T14:35:45.956Z,30.10
2018-08-22T14:38:14.742Z,30.90
2018-08-22T14:40:43.590Z,30.60
2018-08-22T14:43:12.487Z,31.60
2018-08-22T14:45:41.185Z,33.00
2018-08-22T14:48:10.313Z,32.10
2018-08-22T14:50:39.145Z,31.50
2018-08-22T14:53:07.898Z,32.10
2018-08-22T14:55:38.604Z,33.10
2018-08-22T14:58:07.462Z,32.70
2018-08-22T15:00:36.323Z,32.60
2018-08-22T15:03:05.283Z,31.90
2018-08-22T15:05:33.879Z,33.20
2018-08-22T15:08:02.669Z,32.50
2018-08-22T15:10:31.410Z,32.10
2018-08-22T15:13:00.257Z,32.20
2018-08-22T15:15:29.046Z,32.10
2018-08-22T15:17:57.728Z,31.40
2018-08-22T15:20:26.486Z,31.40
2018-08-22T15:22:55.207Z,31.50
2018-08-22T15:25:23.945Z,31.20
2018-08-22T15:28:04.737Z,31.10
2018-08-22T15:30:33.519Z,32.40
2018-08-22T15:33:02.362Z,32.50
2018-08-22T15:35:31.092Z,31.50
2018-08-22T15:37:59.818Z,31.20
2018-08-22T15:40:28.512Z,30.30
2018-08-22T15:42:57.269Z,30.70
2018-08-22T15:45:25.980Z,31.60
2018-08-22T15:47:54.725Z,30.20
2018-08-22T15:50:23.412Z,29.90
2018-08-22T15:52:52.344Z,28.70
2018-08-22T15:55:21.129Z,29.40
2018-08-22T15:57:58.553Z,28.00
2018-08-22T16:00:33.453Z,27.00
2018-08-22T16:03:03.605Z,28.20
2018-08-22T16:05:35.033Z,27.30
2018-08-22T16:08:04.125Z,28.40
2018-08-22T16:10:33.149Z,28.10
2018-08-22T16:13:05.816Z,28.10
2018-08-22T16:15:40.032Z,28.40
2018-08-22T16:18:12.108Z,28.10
2018-08-22T16:20:49.226Z,27.70
2018-08-22T16:23:18.120Z,28.10
2018-08-22T16:25:48.502Z,27.30
2018-08-22T16:28:17.261Z,27.50
2018-08-22T16:30:56.769Z,27.20
2018-08-22T16:33:14.839Z,27.70
2018-08-22T16:35:43.511Z,27.30
2018-08-22T16:38:13.646Z,27.80
2018-08-22T16:40:43.703Z,28.40
2018-08-22T16:43:12.420Z,27.90
2018-08-22T16:45:46.637Z,28.10
2018-08-22T16:48:18.829Z,28.60
2018-08-22T16:50:47.849Z,28.40
2018-08-22T16:53:16.626Z,28.70
2018-08-22T16:55:45.509Z,28.10
2018-08-22T16:58:14.241Z,28.20
2018-08-22T17:00:44.386Z,27.40
2018-08-22T17:03:13.089Z,27.10
2018-08-22T17:05:41.830Z,27.20
2018-08-22T17:08:10.558Z,27.60
2018-08-22T17:10:51.970Z,27.70
2018-08-22T17:13:28.609Z,28.00
2018-08-22T17:15:58.570Z,28.10
2018-08-22T17:18:27.728Z,27.90
2018-08-22T17:20:56.461Z,28.70
2018-08-22T17:23:25.216Z,28.40
2018-08-22T17:25:53.999Z,28.20
2018-08-22T17:28:40.155Z,28.40
2018-08-22T17:31:09.724Z,28.80
2018-08-22T17:33:54.111Z,28.70
2018-08-22T17:36:23.001Z,28.20
2018-08-22T17:38:53.226Z,28.80
2018-08-22T17:41:23.495Z,28.10
2018-08-22T17:43:59.242Z,27.80
2018-08-22T17:46:29.731Z,28.00
2018-08-22T17:48:58.715Z,28.10
2018-08-22T17:51:27.565Z,28.10
2018-08-22T17:53:56.372Z,28.40
2018-08-22T17:56:26.337Z,28.30
2018-08-22T17:58:56.038Z,28.70
2018-08-22T18:01:25.157Z,29.50
2018-08-22T18:03:57.185Z,29.60
2018-08-22T18:06:26.369Z,29.80
2018-08-22T18:08:55.333Z,30.00
2018-08-22T18:11:25.701Z,30.30
2018-08-22T18:13:56.812Z,31.00
2018-08-22T18:16:25.564Z,31.70
2018-08-22T18:18:54.347Z,31.90
2018-08-22T18:21:23.261Z,32.20
2018-08-22T18:23:56.860Z,32.00
2018-08-22T18:26:25.860Z,33.40
2018-08-22T18:28:54.581Z,32.90
2018-08-22T18:31:23.267Z,33.70
2018-08-22T18:34:00.588Z,35.80
2018-08-22T18:36:32.846Z,36.40
2018-08-22T18:39:08.978Z,37.50
2018-08-22T18:41:38.146Z,38.80
2018-08-22T18:44:07.025Z,40.30
2018-08-22T18:46:35.816Z,41.40
2018-08-22T18:49:05.398Z,42.20
2018-08-22T18:51:34.769Z,42.90
2018-08-22T18:54:04.167Z,43.60
2018-08-22T18:56:32.908Z,44.10
2018-08-22T18:59:12.779Z,44.20
2018-08-22T19:01:44.565Z,45.10
2018-08-22T19:04:13.248Z,45.90
2018-08-22T19:06:41.949Z,46.10
2018-08-22T19:09:10.656Z,46.80
2018-08-22T19:11:39.384Z,46.70
2018-08-22T19:14:08.255Z,46.50
2018-08-22T19:16:37.031Z,47.10
2018-08-22T19:19:05.835Z,47.50
2018-08-22T19:21:34.529Z,47.70
2018-08-22T19:24:04.137Z,48.30
2018-08-22T19:26:33.004Z,48.60
2018-08-22T19:29:04.207Z,48.80
2018-08-22T19:31:32.980Z,49.20
2018-08-22T19:34:01.706Z,49.50
2018-08-22T19:36:30.577Z,50.00
2018-08-22T19:38:59.316Z,50.50
2018-08-22T19:41:32.827Z,50.80
2018-08-22T19:44:01.525Z,51.20
2018-08-22T19:46:30.340Z,51.60
2018-08-22T19:49:00.471Z,51.70
2018-08-22T19:51:29.439Z,52.40
2018-08-22T19:54:05.023Z,52.90
2018-08-22T19:56:34.922Z,54.00
2018-08-22T19:59:06.971Z,53.60
2018-08-22T20:01:38.563Z,54.50
2018-08-22T20:04:11.802Z,55.00
2018-08-22T20:06:45.568Z,55.40
2018-08-22T20:09:18.043Z,55.80
2018-08-22T20:11:46.847Z,56.10
2018-08-22T20:14:15.632Z,56.40
2018-08-22T20:16:46.204Z,56.60
2018-08-22T20:19:16.155Z,56.90
2018-08-22T20:21:44.902Z,57.80
2018-08-22T20:24:13.769Z,57.50
2018-08-22T20:26:51.572Z,57.80
2018-08-22T20:29:20.299Z,58.40
2018-08-22T20:31:49.057Z,59.00
2018-08-22T20:34:17.759Z,59.80
2018-08-22T20:36:48.252Z,60.20
2018-08-22T20:39:17.168Z,60.50
2018-08-22T20:41:45.962Z,61.20
2018-08-22T20:44:18.787Z,61.50
2018-08-22T20:46:48.270Z,62.20
2018-08-22T20:49:19.543Z,62.90
2018-08-22T20:51:48.526Z,63.70
2018-08-22T20:54:21.862Z,64.40
2018-08-22T20:56:55.953Z,65.10
2018-08-22T20:59:24.728Z,65.90
2018-08-22T21:01:58.646Z,66.30
2018-08-22T21:04:27.386Z,66.80
2018-08-22T21:06:56.214Z,66.90
2018-08-22T21:09:25.055Z,66.90
2018-08-22T21:11:56.820Z,67.00
2018-08-22T21:14:26.557Z,67.40
2018-08-22T21:16:55.310Z,67.80
2018-08-22T21:19:24.096Z,68.60
2018-08-22T21:21:52.883Z,69.30
2018-08-22T21:24:21.748Z,69.60
2018-08-22T21:26:50.583Z,70.10
2018-08-22T21:29:19.347Z,70.80
2018-08-22T21:31:48.050Z,70.70
2018-08-22T21:34:22.981Z,70.50
2018-08-22T21:36:51.649Z,71.20
2018-08-22T21:39:26.709Z,70.70
2018-08-22T21:41:55.453Z,70.80
2018-08-22T21:44:24.675Z,71.80
2018-08-22T21:46:59.632Z,72.40
2018-08-22T21:49:28.860Z,73.10
2018-08-22T21:52:00.108Z,73.00
2018-08-22T21:54:28.972Z,73.10
2018-08-22T21:56:57.687Z,73.40
2018-08-22T21:59:26.504Z,73.20
2018-08-22T22:02:00.332Z,74.20
2018-08-22T22:04:34.262Z,75.00
2018-08-22T22:07:04.052Z,75.50
2018-08-22T22:09:32.993Z,76.20
2018-08-22T22:12:02.332Z,76.80
2018-08-22T22:14:32.984Z,77.50
2018-08-22T22:17:02.689Z,77.80
2018-08-22T22:19:35.482Z,78.30
2018-08-22T22:22:04.556Z,78.30
2018-08-22T22:24:36.140Z,79.50
2018-08-22T22:27:04.878Z,79.60
2018-08-22T22:29:33.696Z,79.60
2018-08-22T22:32:02.447Z,79.80
2018-08-22T22:34:31.176Z,80.10
2018-08-22T22:36:59.896Z,80.60
2018-08-22T22:39:40.667Z,81.20
2018-08-22T22:42:27.575Z,82.30
2018-08-22T22:44:57.541Z,82.20
2018-08-22T22:47:32.555Z,82.80
2018-08-22T22:50:01.527Z,83.10
2018-08-22T22:52:36.126Z,83.40
2018-08-22T22:55:05.959Z,83.80
2018-08-22T22:57:35.882Z,84.10
2018-08-22T23:00:05.203Z,84.90
2018-08-22T23:02:34.249Z,86.00
2018-08-22T23:05:03.158Z,87.80
2018-08-22T23:07:32.912Z,87.90
2018-08-22T23:10:02.789Z,88.90
2018-08-22T23:12:47.719Z,88.40
2018-08-22T23:15:24.122Z,88.10
2018-08-22T23:17:54.657Z,88.80
2018-08-22T23:20:33.328Z,89.70
2018-08-22T23:23:02.137Z,89.50
2018-08-22T23:25:31.260Z,89.70
2018-08-22T23:27:59.991Z,90.00
2018-08-22T23:30:33.839Z,90.10
2018-08-22T23:33:02.604Z,90.40
2018-08-22T23:35:32.622Z,90.50
2018-08-22T23:38:05.712Z,90.80
2018-08-22T23:40:35.442Z,91.00
2018-08-22T23:43:04.214Z,91.10
2018-08-22T23:45:36.163Z,91.30
2018-08-22T23:48:05.917Z,91.50
2018-08-22T23:50:44.418Z,91.50
2018-08-22T23:53:13.145Z,91.60
2018-08-22T23:55:41.889Z,91.70
2018-08-22T23:58:10.617Z,91.90
